Terminal Aerodrome Forecast
Issued by NWS

Home | Current Version | Previous Version | Text Only | Print | Product List | Glossary Off
Versions: 1 2 3 4 5 6 7 8 9 10 11 12 13 14 15 16 17 18 19 20 21 22 23 24 25 26 27 28 29 30 31 32

000
FTUS43 KGRB 261410 AAA
TAFRHI
TAF AMD
KRHI 261410Z 2614/2712 05005KT 2SM -RA BR OVC002
     FM261800 32005KT P6SM SCT012 OVC022
      TEMPO 2618/2620 4SM SHRA BR BKN012
     FM270300 36008KT P6SM OVC006
     FM270900 34007KT P6SM -RAPL OVC004=

USA.gov is the U.S. government's official web portal to all federal, state and local government web resources and services.